Time;durP1;ratioP1;P1;durP2;ratioP2;P2;SDS_P1;SDS_P2;PMS_P1;PMS_P2;Temp;Humidity;BMP_temperature;BMP_pressure;BME280_temperature;BME280_humidity;BME280_pressure;Samples;Min_cycle;Max_cycle;Signal;HPM_P1;HPM_P2
2022/04/09 00:00:18;;;;;;;;;3.25;3.25;;;;;5.65;100.00;100273.03;6364805;22;46055;-92
2022/04/09 00:02:43;;;;;;;;;5.00;5.00;;;;;5.65;100.00;100278.22;6366218;22;45299;-92
2022/04/09 00:05:11;;;;;;;;;8.75;5.75;;;;;5.70;100.00;100275.09;6366039;22;45355;-93
2022/04/09 00:07:37;;;;;;;;;5.25;3.50;;;;;5.69;100.00;100273.31;6366800;22;45299;-92
2022/04/09 00:10:05;;;;;;;;;5.00;2.50;;;;;5.68;100.00;100278.41;6365124;22;47272;-93
2022/04/09 00:12:31;;;;;;;;;5.25;2.75;;;;;5.67;100.00;100280.13;6368230;22;45330;-92
2022/04/09 00:14:56;;;;;;;;;3.25;3.25;;;;;5.72;100.00;100288.19;6367151;22;45350;-93
2022/04/09 00:17:22;;;;;;;;;5.00;5.00;;;;;5.75;100.00;100282.25;6365047;22;45477;-93
2022/04/09 00:19:48;;;;;;;;;2.50;2.50;;;;;5.76;100.00;100276.25;6367227;22;45331;-92
2022/04/09 00:22:14;;;;;;;;;4.25;4.25;;;;;5.84;100.00;100301.03;6366990;22;45238;-92
2022/04/09 00:24:39;;;;;;;;;2.75;2.75;;;;;5.79;100.00;100294.66;6392191;22;45374;-92
2022/04/09 00:27:05;;;;;;;;;8.25;4.25;;;;;5.79;100.00;100284.25;6365239;22;45220;-92
2022/04/09 00:29:30;;;;;;;;;2.75;2.75;;;;;5.87;100.00;100295.09;6366215;22;46128;-93
2022/04/09 00:31:56;;;;;;;;;2.50;2.50;;;;;5.86;100.00;100296.81;6363758;22;45686;-92
2022/04/09 00:34:21;;;;;;;;;2.00;1.00;;;;;5.83;100.00;100283.59;6364031;22;45630;-92
2022/04/09 00:36:46;;;;;;;;;6.25;5.00;;;;;5.91;100.00;100305.78;6363198;22;45460;-92
2022/04/09 00:39:12;;;;;;;;;5.50;4.50;;;;;5.87;100.00;100287.28;6366084;22;46411;-92
2022/04/09 00:41:47;;;;;;;;;5.00;5.00;;;;;5.97;100.00;100300.03;6363861;22;45500;-92
2022/04/09 00:44:21;;;;;;;;;3.25;3.25;;;;;6.01;100.00;100306.31;6366813;22;45464;-92
2022/04/09 00:46:47;;;;;;;;;4.00;4.00;;;;;5.99;100.00;100294.91;6367169;22;45279;-93
2022/04/09 00:49:13;;;;;;;;;3.25;3.00;;;;;6.04;100.00;100307.38;6365055;22;48460;-91
2022/04/09 00:51:41;;;;;;;;;1.00;1.00;;;;;6.02;100.00;100302.91;6364726;22;45370;-92
2022/04/09 00:54:08;;;;;;;;;5.75;4.75;;;;;5.95;100.00;100280.81;6365359;22;45381;-92
2022/04/09 00:56:35;;;;;;;;;5.50;5.50;;;;;6.03;100.00;100300.38;6365653;22;45429;-90
2022/04/09 00:59:03;;;;;;;;;8.25;5.00;;;;;6.03;100.00;100291.69;6366575;22;46423;-93
2022/04/09 01:01:32;;;;;;;;;5.50;5.25;;;;;6.09;100.00;100296.34;6367435;22;45310;-93
2022/04/09 01:03:59;;;;;;;;;2.75;2.75;;;;;6.09;100.00;100298.94;6365210;22;45628;-92
2022/04/09 01:06:25;;;;;;;;;3.25;3.25;;;;;6.07;100.00;100303.16;6365330;22;45170;-92
2022/04/09 01:08:51;;;;;;;;;3.25;3.25;;;;;6.03;100.00;100307.31;6365559;22;47172;-93
2022/04/09 01:11:17;;;;;;;;;2.00;1.50;;;;;6.04;100.00;100317.81;6365262;22;45879;-93
2022/04/09 01:13:44;;;;;;;;;4.00;4.00;;;;;6.06;100.00;100325.69;6365152;22;45378;-93
2022/04/09 01:16:10;;;;;;;;;1.75;1.75;;;;;6.01;100.00;100309.81;6367744;22;45361;-93
2022/04/09 01:18:36;;;;;;;;;2.00;1.75;;;;;6.06;100.00;100333.50;6365301;22;46903;-93
2022/04/09 01:21:03;;;;;;;;;1.00;1.00;;;;;6.14;100.00;100360.06;6367383;22;45417;-93
2022/04/09 01:23:30;;;;;;;;;2.00;1.25;;;;;6.08;100.00;100362.31;6387610;22;45211;-93
2022/04/09 01:26:01;;;;;;;;;3.25;2.00;;;;;6.08;100.00;100363.19;6388732;22;45258;-93
2022/04/09 01:28:26;;;;;;;;;0.75;0.75;;;;;6.09;100.00;100369.31;6362417;22;45304;-93
2022/04/09 01:30:53;;;;;;;;;1.00;1.00;;;;;6.03;100.00;100367.25;6350538;22;45480;-93
2022/04/09 01:33:22;;;;;;;;;1.00;1.00;;;;;6.04;100.00;100376.84;6365678;22;45405;-92
2022/04/09 01:35:49;;;;;;;;;2.67;0.67;;;;;6.08;100.00;100388.38;6391643;22;45653;-93
2022/04/09 01:38:15;;;;;;;;;1.00;1.00;;;;;6.03;100.00;100388.09;6365147;22;47002;-94
2022/04/09 01:40:41;;;;;;;;;1.00;1.00;;;;;6.07;100.00;100396.97;6367591;22;45396;-93
2022/04/09 01:43:07;;;;;;;;;5.50;2.25;;;;;5.95;100.00;100378.91;6365593;22;45839;-92
2022/04/09 01:45:34;;;;;;;;;1.00;1.00;;;;;5.97;100.00;100385.09;6366182;22;45326;-93
2022/04/09 01:47:59;;;;;;;;;1.00;1.00;;;;;6.00;100.00;100391.41;6367700;22;45549;-93
2022/04/09 01:50:29;;;;;;;;;4.50;2.00;;;;;5.97;100.00;100377.28;6365254;22;45233;-93
2022/04/09 01:52:55;;;;;;;;;3.00;3.00;;;;;5.99;100.00;100394.81;6365133;22;45607;-92
2022/04/09 01:55:22;;;;;;;;;2.00;2.00;;;;;6.03;100.00;100388.09;6364010;22;45552;-91
2022/04/09 01:57:48;;;;;;;;;0.00;0.00;;;;;6.01;100.00;100392.28;6364954;22;47310;-92
2022/04/09 02:00:16;;;;;;;;;4.75;4.75;;;;;5.95;100.00;100373.72;6363832;22;45582;-92
2022/04/09 02:02:42;;;;;;;;;5.00;4.50;;;;;5.99;100.00;100384.38;6367524;22;45227;-92
2022/04/09 02:05:11;;;;;;;;;3.25;2.00;;;;;5.95;100.00;100372.00;6364923;22;45449;-91
2022/04/09 02:07:37;;;;;;;;;2.25;2.25;;;;;5.95;100.00;100365.88;6366931;22;46250;-92
2022/04/09 02:10:04;;;;;;;;;4.75;4.75;;;;;5.88;100.00;100354.19;6364718;22;45278;-92
2022/04/09 02:12:34;;;;;;;;;2.50;2.50;;;;;6.00;100.00;100360.16;6364519;22;45400;-92
2022/04/09 02:15:08;;;;;;;;;3.25;3.25;;;;;5.98;100.00;100356.53;6364097;22;45354;-92
2022/04/09 02:17:35;;;;;;;;;1.50;1.50;;;;;5.91;100.00;100346.56;6364782;22;47983;-91
2022/04/09 02:20:02;;;;;;;;;3.67;2.67;;;;;6.00;100.00;100351.41;6365117;22;45576;-93
2022/04/09 02:22:35;;;;;;;;;5.25;3.25;;;;;6.07;100.00;100365.69;6365409;22;45407;-92
2022/04/09 02:25:02;;;;;;;;;2.00;2.00;;;;;6.00;100.00;100357.53;6364013;22;45357;-93
2022/04/09 02:27:28;;;;;;;;;6.33;3.00;;;;;6.00;100.00;100364.44;6365267;22;48415;-92
2022/04/09 02:29:53;;;;;;;;;3.50;2.00;;;;;5.99;100.00;100368.75;6365059;22;45182;-93
2022/04/09 02:32:18;;;;;;;;;2.00;2.00;;;;;6.03;100.00;100378.53;6367582;22;45563;-92
2022/04/09 02:34:44;;;;;;;;;2.50;2.50;;;;;6.03;100.00;100373.31;6365205;22;45462;-92
2022/04/09 02:37:11;;;;;;;;;4.50;4.50;;;;;5.96;100.00;100359.84;6367332;22;45968;-93
2022/04/09 02:39:36;;;;;;;;;3.50;3.50;;;;;6.02;100.00;100376.75;6367003;22;45664;-92
2022/04/09 02:42:02;;;;;;;;;4.00;3.50;;;;;6.06;100.00;100380.41;6368846;22;45389;-93
2022/04/09 02:44:28;;;;;;;;;5.25;4.75;;;;;6.02;100.00;100384.56;6383813;22;45520;-93
2022/04/09 02:46:53;;;;;;;;;6.00;4.00;;;;;5.98;100.00;100390.41;6394763;22;46308;-92
2022/04/09 02:49:20;;;;;;;;;6.00;6.00;;;;;6.03;100.00;100394.16;6376853;22;45337;-93
2022/04/09 02:51:45;;;;;;;;;6.00;5.50;;;;;6.08;100.00;100406.63;6392786;22;45571;-92
2022/04/09 02:54:15;;;;;;;;;6.25;3.25;;;;;6.03;100.00;100385.47;6365672;22;45560;-93
2022/04/09 02:56:43;;;;;;;;;5.00;5.00;;;;;6.04;100.00;100384.66;6366061;22;47135;-93
2022/04/09 02:59:09;;;;;;;;;2.50;2.50;;;;;6.09;100.00;100401.50;6364610;22;45309;-93
2022/04/09 03:01:35;;;;;;;;;6.50;5.00;;;;;6.05;100.00;100404.69;6369719;22;45364;-92
2022/04/09 03:04:00;;;;;;;;;5.00;5.00;;;;;6.02;100.00;100408.03;6368101;22;45448;-92
2022/04/09 03:06:25;;;;;;;;;9.75;6.50;;;;;6.05;100.00;100417.72;6364271;22;46908;-93
2022/04/09 03:08:51;;;;;;;;;5.50;5.50;;;;;6.04;100.00;100406.41;6364613;22;45736;-92
2022/04/09 03:11:16;;;;;;;;;5.00;5.00;;;;;5.93;100.00;100392.75;6364850;22;45339;-92
2022/04/09 03:13:41;;;;;;;;;9.50;5.00;;;;;5.89;100.00;100382.97;6364773;22;45379;-91
2022/04/09 03:16:07;;;;;;;;;4.50;4.50;;;;;5.88;100.00;100369.81;6366118;22;46493;-92
2022/04/09 03:18:32;;;;;;;;;5.50;5.00;;;;;5.75;100.00;100356.09;6364908;22;45663;-91
2022/04/09 03:20:57;;;;;;;;;5.50;4.50;;;;;5.82;100.00;100350.41;6368485;22;45289;-92
2022/04/09 03:23:23;;;;;;;;;5.00;5.00;;;;;5.76;100.00;100337.06;6365812;22;45360;-91
2022/04/09 03:25:48;;;;;;;;;8.50;6.00;;;;;5.76;100.00;100317.91;6364285;22;48325;-91
2022/04/09 03:28:14;;;;;;;;;9.50;7.25;;;;;5.74;100.00;100314.34;6364187;22;45243;-92
2022/04/09 03:30:41;;;;;;;;;5.25;4.00;;;;;5.78;100.00;100326.72;6366754;22;45389;-92
2022/04/09 03:33:06;;;;;;;;;3.25;3.25;;;;;5.77;100.00;100327.53;6392148;22;45270;-92
2022/04/09 03:35:32;;;;;;;;;3.25;3.25;;;;;5.69;100.00;100321.88;6364139;22;47057;-92
2022/04/09 03:37:57;;;;;;;;;5.25;4.50;;;;;5.70;100.00;100331.47;6363234;22;45457;-92
2022/04/09 03:40:23;;;;;;;;;7.75;6.75;;;;;5.71;100.00;100325.47;6364622;22;46276;-91
2022/04/09 03:42:49;;;;;;;;;7.25;6.00;;;;;5.64;100.00;100299.88;6367076;22;45371;-92
2022/04/09 03:45:14;;;;;;;;;9.50;4.75;;;;;5.70;100.00;100316.75;6363903;22;48166;-91
2022/04/09 03:47:39;;;;;;;;;13.25;9.00;;;;;5.68;100.00;100307.97;6364545;22;45748;-91
2022/04/09 03:50:05;;;;;;;;;9.50;6.00;;;;;5.76;100.00;100318.84;6365773;22;45405;-91
2022/04/09 03:52:30;;;;;;;;;8.75;8.75;;;;;5.65;100.00;100306.88;6363724;22;45491;-91
2022/04/09 03:54:56;;;;;;;;;5.00;4.00;;;;;5.69;100.00;100316.69;6364478;22;47365;-92
2022/04/09 03:57:21;;;;;;;;;5.75;5.75;;;;;5.70;100.00;100319.38;6366451;22;45419;-92
2022/04/09 03:59:48;;;;;;;;;6.25;6.25;;;;;5.69;100.00;100320.19;6363844;22;45607;-91
2022/04/09 04:02:14;;;;;;;;;5.75;5.00;;;;;5.70;100.00;100321.97;6364815;22;45219;-92
2022/04/09 04:04:39;;;;;;;;;5.00;5.00;;;;;5.75;100.00;100324.84;6364985;22;46807;-92
2022/04/09 04:07:05;;;;;;;;;5.00;5.00;;;;;5.73;100.00;100316.03;6365841;22;45250;-91
2022/04/09 04:09:30;;;;;;;;;6.00;6.00;;;;;5.68;100.00;100312.25;6368617;22;45408;-92
2022/04/09 04:11:56;;;;;;;;;6.50;4.00;;;;;5.75;100.00;100309.22;6369262;22;45603;-92
2022/04/09 04:14:21;;;;;;;;;9.75;9.25;;;;;5.75;100.00;100306.59;6369589;22;46384;-92
2022/04/09 04:16:46;;;;;;;;;9.25;5.00;;;;;5.78;100.00;100318.91;6369503;22;45286;-92
2022/04/09 04:19:12;;;;;;;;;5.75;5.00;;;;;5.69;100.00;100304.56;6399833;22;45276;-92
2022/04/09 04:21:38;;;;;;;;;7.50;6.00;;;;;5.77;100.00;100307.59;6370913;22;45331;-93
2022/04/09 04:24:04;;;;;;;;;7.25;7.25;;;;;5.68;100.00;100281.03;6397551;22;46772;-92
2022/04/09 04:26:29;;;;;;;;;13.50;6.25;;;;;5.69;100.00;100295.84;6371212;22;45699;-92
2022/04/09 04:28:54;;;;;;;;;11.25;9.00;;;;;5.74;100.00;100301.31;6370450;22;45449;-93
2022/04/09 04:31:20;;;;;;;;;7.00;6.25;;;;;5.76;100.00;100305.81;6400036;22;45336;-92
2022/04/09 04:33:46;;;;;;;;;7.25;6.00;;;;;5.77;100.00;100304.97;6371205;22;47053;-91
2022/04/09 04:36:11;;;;;;;;;5.50;5.00;;;;;5.73;100.00;100294.28;6396811;22;45686;-92
2022/04/09 04:38:36;;;;;;;;;5.00;5.00;;;;;5.77;100.00;100304.09;6370737;22;45455;-90
2022/04/09 04:41:04;;;;;;;;;9.50;7.75;;;;;5.69;100.00;100295.84;6399905;22;45351;-92
2022/04/09 04:43:30;;;;;;;;;6.00;6.00;;;;;5.70;100.00;100305.44;6370659;22;47323;-93
2022/04/09 04:45:57;;;;;;;;;9.50;7.00;;;;;5.72;100.00;100316.84;6344277;22;45587;-92
2022/04/09 04:48:22;;;;;;;;;7.25;7.25;;;;;5.76;100.00;100325.75;6370838;22;45445;-92
2022/04/09 04:50:48;;;;;;;;;9.75;6.00;;;;;5.73;100.00;100321.25;6370192;22;45381;-93
2022/04/09 04:53:13;;;;;;;;;8.75;6.25;;;;;5.71;100.00;100307.25;6370790;22;47916;-92
2022/04/09 04:55:38;;;;;;;;;7.25;6.00;;;;;5.77;100.00;100320.59;6370799;22;45800;-92
2022/04/09 04:58:04;;;;;;;;;6.50;6.25;;;;;5.74;100.00;100315.25;6370876;22;45467;-92
2022/04/09 05:00:30;;;;;;;;;6.25;4.75;;;;;5.73;100.00;100316.03;6370545;22;45408;-92
2022/04/09 05:02:56;;;;;;;;;9.75;6.75;;;;;5.77;100.00;100328.41;6370969;22;47000;-92
2022/04/09 05:05:21;;;;;;;;;6.00;6.00;;;;;5.76;100.00;100315.31;6370116;22;45711;-91
2022/04/09 05:07:49;;;;;;;;;8.00;8.00;;;;;5.82;100.00;100324.38;6369930;22;45373;-92
2022/04/09 05:10:19;;;;;;;;;12.25;8.75;;;;;5.77;100.00;100322.34;6370354;22;45767;-91
2022/04/09 05:12:46;;;;;;;;;10.75;6.75;;;;;5.79;100.00;100318.09;6371010;22;46995;-93
2022/04/09 05:15:15;;;;;;;;;10.00;8.25;;;;;5.79;100.00;100319.00;6369925;22;45714;-92
2022/04/09 05:17:41;;;;;;;;;6.75;6.75;;;;;5.83;100.00;100330.50;6370682;22;45326;-92
2022/04/09 05:20:09;;;;;;;;;9.25;7.00;;;;;5.81;100.00;100332.13;6370076;22;45239;-91
2022/04/09 05:22:36;;;;;;;;;6.00;6.00;;;;;5.78;100.00;100329.31;6370650;22;47335;-91
2022/04/09 05:25:02;;;;;;;;;6.00;4.50;;;;;5.86;100.00;100342.78;6370297;22;45439;-91
2022/04/09 05:27:28;;;;;;;;;6.25;6.25;;;;;5.86;100.00;100342.78;6370425;22;45299;-91
2022/04/09 05:29:54;;;;;;;;;5.00;5.00;;;;;5.81;100.00;100329.50;6369908;22;45371;-92
2022/04/09 05:32:19;;;;;;;;;5.75;5.25;;;;;5.80;100.00;100331.22;6370695;22;46127;-91
2022/04/09 05:34:46;;;;;;;;;5.50;3.75;;;;;5.86;100.00;100329.78;6370439;22;45304;-92
2022/04/09 05:37:11;;;;;;;;;7.50;6.00;;;;;5.83;100.00;100325.28;6369603;22;45481;-92
2022/04/09 05:39:37;;;;;;;;;8.50;5.75;;;;;5.92;100.00;100337.94;6399262;22;45375;-92
2022/04/09 05:42:02;;;;;;;;;5.25;4.75;;;;;5.86;100.00;100328.06;6370687;22;47263;-91
2022/04/09 05:44:28;;;;;;;;;9.75;6.00;;;;;5.91;100.00;100342.25;6399158;22;45616;-92
2022/04/09 05:46:53;;;;;;;;;7.25;6.00;;;;;5.95;100.00;100342.44;6369767;22;45716;-91
2022/04/09 05:49:20;;;;;;;;;5.75;5.75;;;;;5.93;100.00;100342.34;6369934;22;45421;-90
2022/04/09 05:51:47;;;;;;;;;6.00;6.00;;;;;5.96;100.00;100341.63;6370090;22;47273;-92
2022/04/09 05:54:12;;;;;;;;;6.00;6.00;;;;;5.98;100.00;100342.63;6370516;22;45606;-92
2022/04/09 05:56:37;;;;;;;;;4.50;2.25;;;;;6.00;100.00;100344.50;6370079;22;45385;-91
2022/04/09 05:59:03;;;;;;;;;7.50;5.50;;;;;5.98;100.00;100340.88;6399132;22;45169;-92
2022/04/09 06:01:28;;;;;;;;;8.25;5.75;;;;;5.97;100.00;100341.72;6370372;22;47782;-92
2022/04/09 06:03:55;;;;;;;;;6.00;4.75;;;;;6.03;100.00;100351.59;6369981;22;45759;-92
2022/04/09 06:06:21;;;;;;;;;5.00;5.00;;;;;5.96;100.00;100344.22;6399272;22;45279;-92
2022/04/09 06:08:47;;;;;;;;;9.25;6.75;;;;;6.07;100.00;100366.63;6370034;22;45308;-92
2022/04/09 06:11:13;;;;;;;;;5.50;5.50;;;;;6.08;100.00;100368.41;6370014;22;48211;-92
2022/04/09 06:13:39;;;;;;;;;7.75;6.00;;;;;6.04;100.00;100364.72;6370292;22;45433;-93
2022/04/09 06:16:08;;;;;;;;;6.50;4.75;;;;;6.13;100.00;100374.78;6398707;22;45501;-92
2022/04/09 06:18:35;;;;;;;;;8.50;5.25;;;;;6.13;100.00;100366.97;6383240;22;45370;-92
2022/04/09 06:21:01;;;;;;;;;10.25;9.00;;;;;6.17;100.00;100360.22;6418569;22;45243;-92
2022/04/09 06:23:26;;;;;;;;;9.25;9.25;;;;;6.24;100.00;100378.00;6421314;22;44695;-84
2022/04/09 06:25:51;;;;;;;;;6.00;5.75;;;;;6.30;100.00;100366.13;6397302;22;45181;-83
2022/04/09 06:28:17;;;;;;;;;6.00;6.00;;;;;6.37;100.00;100377.00;6396473;22;45239;-84
2022/04/09 06:30:42;;;;;;;;;9.75;7.00;;;;;6.40;100.00;100377.97;6395793;22;49884;-83
2022/04/09 06:33:07;;;;;;;;;9.50;7.00;;;;;6.44;100.00;100396.47;6367911;22;52595;-83
2022/04/09 06:35:33;;;;;;;;;8.50;6.50;;;;;6.44;100.00;100387.78;6396488;22;45389;-83
2022/04/09 06:37:58;;;;;;;;;10.25;5.75;;;;;6.48;100.00;100401.09;6396283;22;45280;-83
2022/04/09 06:40:23;;;;;;;;;9.00;7.50;;;;;6.50;100.00;100393.34;6367179;22;47423;-83
2022/04/09 06:42:49;;;;;;;;;10.25;7.25;;;;;6.52;100.00;100394.31;6397028;22;45397;-84
2022/04/09 06:45:15;;;;;;;;;7.25;7.25;;;;;6.57;100.00;100387.63;6365832;22;45350;-83
2022/04/09 06:47:40;;;;;;;;;6.25;5.00;;;;;6.66;100.00;100394.19;6368418;22;45352;-83
2022/04/09 06:50:10;;;;;;;;;10.25;8.75;;;;;6.74;100.00;100397.22;6395930;22;45413;-82
2022/04/09 06:52:36;;;;;;;;;8.25;7.00;;;;;6.81;100.00;100399.34;6367075;22;45374;-83
2022/04/09 06:55:03;;;;;;;;;8.75;6.00;;;;;6.91;100.00;100406.88;6367255;22;45281;-83
2022/04/09 06:57:29;;;;;;;;;9.75;6.75;;;;;6.98;100.00;100404.63;6397487;22;45329;-83
2022/04/09 06:59:58;;;;;;;;;5.75;5.50;;;;;7.03;100.00;100419.72;6366233;22;46960;-83
2022/04/09 07:02:24;;;;;;;;;6.25;6.25;;;;;7.06;100.00;100438.97;6396866;22;45228;-83
2022/04/09 07:04:50;;;;;;;;;12.75;9.25;;;;;7.10;100.00;100440.91;6367802;22;45352;-84
2022/04/09 07:07:22;;;;;;;;;12.25;9.00;;;;;7.17;100.00;100444.75;6395887;22;45459;-81
2022/04/09 07:09:48;;;;;;;;;8.75;8.75;;;;;7.21;100.00;100438.91;6365728;22;48057;-84
2022/04/09 07:12:13;;;;;;;;;13.50;10.25;;;;;7.29;100.00;100448.06;6396358;22;45251;-83
2022/04/09 07:14:39;;;;;;;;;14.50;12.00;;;;;7.34;100.00;100445.69;6395674;22;45384;-83
2022/04/09 07:17:05;;;;;;;;;9.75;6.50;;;;;7.44;100.00;100447.97;6366244;22;45308;-83
2022/04/09 07:19:30;;;;;;;;;8.75;8.00;;;;;7.54;100.00;100456.28;6367268;22;47419;-84
2022/04/09 07:21:55;;;;;;;;;7.25;5.50;;;;;7.56;100.00;100468.59;6366240;22;45700;-83
2022/04/09 07:24:21;;;;;;;;;6.50;6.50;;;;;7.65;100.00;100494.34;6367454;22;52663;-82
2022/04/09 07:26:46;;;;;;;;;12.25;10.25;;;;;7.71;100.00;100489.41;6396967;22;46420;-82
2022/04/09 07:29:11;;;;;;;;;9.00;7.25;;;;;7.83;100.00;100475.22;6366824;22;47043;-83
2022/04/09 07:31:37;;;;;;;;;5.75;5.75;;;;;7.96;100.00;100475.84;6366705;22;45258;-83
2022/04/09 07:34:02;;;;;;;;;3.00;2.00;;;;;8.04;100.00;100493.72;6397292;22;45275;-83
2022/04/09 07:36:28;;;;;;;;;7.75;7.25;;;;;8.08;100.00;100502.63;6396106;22;45445;-83
2022/04/09 07:38:53;;;;;;;;;7.50;6.50;;;;;8.08;100.00;100513.09;6396126;22;45374;-83
2022/04/09 07:41:19;;;;;;;;;10.75;9.50;;;;;8.06;100.00;100519.94;6367499;22;45320;-81
2022/04/09 07:43:44;;;;;;;;;10.75;7.75;;;;;8.04;100.00;100532.06;6395248;22;45617;-83
2022/04/09 07:46:09;;;;;;;;;9.25;6.50;;;;;8.05;100.00;100537.34;6366892;22;45422;-86
2022/04/09 07:48:35;;;;;;;;;13.75;8.00;;;;;8.04;100.00;100527.69;6367355;22;48203;-84
2022/04/09 07:51:01;;;;;;;;;8.00;5.25;;;;;8.07;100.00;100523.44;6365576;22;45763;-84
2022/04/09 07:53:26;;;;;;;;;11.25;7.00;;;;;8.14;100.00;100542.13;6397225;22;45754;-82
2022/04/09 07:55:51;;;;;;;;;6.25;6.25;;;;;8.19;100.00;100542.41;6391836;22;45536;-83
2022/04/09 07:58:17;;;;;;;;;9.00;8.00;;;;;8.24;100.00;100550.47;6396544;22;45635;-83
2022/04/09 08:00:44;;;;;;;;;8.25;8.25;;;;;8.33;100.00;100553.56;6396696;22;45745;-83
2022/04/09 08:03:09;;;;;;;;;10.50;10.50;;;;;8.44;100.00;100542.75;6396668;22;45315;-83
2022/04/09 08:05:35;;;;;;;;;10.50;5.00;;;;;8.50;100.00;100557.03;6396622;22;45326;-82
2022/04/09 08:08:01;;;;;;;;;8.75;7.00;;;;;8.59;100.00;100563.59;6397299;22;45911;-84
2022/04/09 08:10:26;;;;;;;;;10.75;9.50;;;;;8.66;100.00;100576.16;6392903;22;45369;-84
2022/04/09 08:12:53;;;;;;;;;6.00;6.00;;;;;8.71;100.00;100571.19;6395438;22;45359;-84
2022/04/09 08:15:19;;;;;;;;;8.75;6.00;;;;;8.81;100.00;100588.25;6366815;22;45494;-84
2022/04/09 08:17:45;;;;;;;;;9.00;6.75;;;;;8.92;100.00;100591.38;6368017;22;46878;-84
2022/04/09 08:20:13;;;;;;;;;7.00;7.00;;;;;9.00;100.00;100604.84;6366939;22;45707;-84
2022/04/09 08:22:38;;;;;;;;;5.00;5.00;;;;;9.07;100.00;100627.88;6366636;22;45822;-84
2022/04/09 08:25:05;;;;;;;;;6.50;5.00;;;;;9.09;100.00;100631.50;6395862;22;45281;-85
2022/04/09 08:27:30;;;;;;;;;4.00;3.00;;;;;9.16;100.00;100643.16;6395681;22;46524;-85
2022/04/09 08:29:56;;;;;;;;;5.25;5.25;;;;;9.28;100.00;100658.56;6395406;22;45681;-84
2022/04/09 08:32:24;;;;;;;;;2.25;2.25;;;;;9.26;100.00;100668.09;6396048;22;45292;-84
2022/04/09 08:34:49;;;;;;;;;7.00;3.00;;;;;9.22;100.00;100676.63;6397191;22;45408;-85
2022/04/09 08:37:15;;;;;;;;;3.50;3.50;;;;;9.14;100.00;100694.56;6366897;22;47149;-85
2022/04/09 08:39:40;;;;;;;;;3.00;3.00;;;;;9.08;100.00;100712.56;6368226;22;45357;-84
2022/04/09 08:42:05;;;;;;;;;5.75;5.75;;;;;9.14;100.00;100718.13;6394867;22;54454;-84
2022/04/09 08:44:31;;;;;;;;;7.00;7.00;;;;;9.15;100.00;100740.88;6393782;22;45362;-85
2022/04/09 08:46:57;;;;;;;;;4.25;4.25;;;;;9.07;100.00;100744.84;6366946;22;47263;-85
2022/04/09 08:49:24;;;;;;;;;5.50;3.00;;;;;8.97;100.00;100767.91;6396923;22;45402;-86
2022/04/09 08:51:49;;;;;;;;;2.75;2.75;;;;;8.88;100.00;100765.72;6366712;22;45753;-85
2022/04/09 08:54:17;;;;;;;;;7.00;7.00;;;;;8.89;100.00;100771.88;6368151;22;45340;-85
2022/04/09 08:56:42;;;;;;;;;5.33;2.67;;;;;8.88;100.00;100791.00;6396890;22;46244;-84
2022/04/09 08:59:07;;;;;;;;;5.33;5.33;;;;;8.87;100.00;100782.22;6396322;22;45499;-85
2022/04/09 09:01:33;;;;;;;;;7.00;3.00;;;;;8.93;100.00;100769.47;6367188;22;52231;-86
2022/04/09 09:03:59;;;;;;;;;5.33;4.00;;;;;9.04;100.00;100772.66;6367572;22;45402;-86
2022/04/09 09:06:29;;;;;;;;;4.67;4.33;;;;;9.17;100.00;100775.91;6367292;22;48303;-86
2022/04/09 09:08:56;;;;;;;;;5.00;4.00;;;;;9.25;100.00;100771.06;6367545;22;45288;-86
2022/04/09 09:11:23;;;;;;;;;5.00;4.67;;;;;9.36;100.00;100785.59;6396182;22;45362;-85
2022/04/09 09:13:50;;;;;;;;;6.67;6.67;;;;;9.45;100.00;100771.19;6396276;22;45713;-86
2022/04/09 09:16:27;;;;;;;;;8.00;7.00;;;;;9.66;100.00;100779.22;6367064;22;46994;-86
2022/04/09 09:18:58;;;;;;;;;6.00;2.33;;;;;9.93;100.00;100765.66;6396819;22;45259;-85
2022/04/09 09:21:26;;;;;;;;;6.00;6.00;;;;;10.17;100.00;100769.38;6367494;22;45356;-86
2022/04/09 09:23:52;;;;;;;;;6.67;5.00;;;;;10.32;100.00;100792.81;6396541;22;45325;-86
2022/04/09 09:26:22;;;;;;;;;6.00;4.67;;;;;10.40;100.00;100811.53;6396435;22;45358;-86
2022/04/09 09:28:56;;;;;;;;;6.00;6.00;;;;;10.40;100.00;100811.53;6395399;22;45276;-86
2022/04/09 09:31:41;;;;;;;;;4.33;4.33;;;;;10.39;100.00;100822.84;6367103;22;45627;-86
2022/04/09 09:34:11;;;;;;;;;7.00;6.00;;;;;10.40;100.00;100840.41;6397048;22;45205;-86
2022/04/09 09:36:40;;;;;;;;;5.33;5.33;;;;;10.34;100.00;100858.47;6367762;22;47215;-85
2022/04/09 09:39:07;;;;;;;;;6.33;6.33;;;;;10.25;100.00;100872.06;6393557;22;45582;-86
2022/04/09 09:41:33;;;;;;;;;5.67;5.67;;;;;10.16;100.00;100881.28;6367217;22;45340;-86
2022/04/09 09:44:04;;;;;;;;;6.00;6.00;;;;;10.24;100.00;100868.53;6366111;22;45426;-85
2022/04/09 09:46:29;;;;;;;;;2.67;2.67;;;;;10.44;100.00;100871.22;6366843;22;46129;-86
2022/04/09 09:48:55;;;;;;;;;6.00;3.67;;;;;10.57;100.00;100869.19;6395786;22;45294;-86
2022/04/09 09:51:23;;;;;;;;;4.00;4.00;;;;;10.58;100.00;100879.78;6399599;22;45461;-86
2022/04/09 09:53:48;;;;;;;;;5.67;3.00;;;;;10.51;100.00;100890.84;6395896;22;45497;-86
2022/04/09 09:56:14;;;;;;;;;7.00;4.67;;;;;10.48;100.00;100904.66;6366457;22;47281;-87
2022/04/09 09:58:40;;;;;;;;;5.33;3.67;;;;;10.36;100.00;100915.44;6365059;22;45551;-86
2022/04/09 10:01:07;;;;;;;;;2.67;2.67;;;;;10.33;100.00;100909.16;6398114;22;45597;-86
2022/04/09 10:03:33;;;;;;;;;6.33;6.33;;;;;10.24;100.00;100938.47;6395782;22;45407;-86
2022/04/09 10:05:58;;;;;;;;;4.67;3.67;;;;;10.12;100.00;100963.28;6395136;22;46048;-86
2022/04/09 10:08:24;;;;;;;;;6.00;6.00;;;;;9.94;100.00;100956.28;6395832;22;45213;-86
2022/04/09 10:10:53;;;;;;;;;3.33;3.33;;;;;9.84;100.00;100951.38;6366223;22;45290;-86
2022/04/09 10:13:20;;;;;;;;;3.00;1.00;;;;;9.78;100.00;100923.09;6366036;22;45537;-86
2022/04/09 10:15:50;;;;;;;;;6.67;6.00;;;;;9.77;100.00;100925.63;6394645;22;45482;-86
2022/04/09 10:18:21;;;;;;;;;7.50;7.00;;;;;9.70;100.00;100924.41;6367352;22;45592;-86
2022/04/09 10:20:50;;;;;;;;;6.00;3.33;;;;;9.60;100.00;100926.56;6393053;22;45306;-86
2022/04/09 10:23:18;;;;;;;;;9.00;7.25;;;;;9.52;100.00;100940.09;6369717;22;45544;-86
2022/04/09 10:25:46;;;;;;;;;4.25;4.25;;;;;9.39;100.00;100931.56;6396125;22;45704;-86
2022/04/09 10:28:11;;;;;;;;;7.00;4.33;;;;;9.34;100.00;100948.78;6366522;22;45335;-86
2022/04/09 10:30:39;;;;;;;;;4.33;3.00;;;;;9.34;100.00;100983.72;6366743;22;45330;-86
2022/04/09 10:33:20;;;;;;;;;11.00;7.50;;;;;9.37;100.00;100960.31;6395847;22;45498;-85
2022/04/09 10:35:46;;;;;;;;;9.75;6.75;;;;;9.46;100.00;100967.75;6362462;22;47102;-86
2022/04/09 10:38:19;;;;;;;;;7.00;7.00;;;;;9.59;100.00;100974.56;6365708;22;45292;-87
2022/04/09 10:40:50;;;;;;;;;6.00;4.25;;;;;9.77;100.00;100973.72;6392860;22;45379;-87
2022/04/09 10:43:25;;;;;;;;;6.00;6.00;;;;;9.88;100.00;100999.59;6365890;22;45342;-86
2022/04/09 10:46:02;;;;;;;;;8.67;5.33;;;;;10.03;100.00;100996.88;6365504;22;46929;-86
2022/04/09 10:48:33;;;;;;;;;6.67;6.00;;;;;10.27;100.00;100978.88;6363892;22;45313;-86
2022/04/09 10:51:07;;;;;;;;;4.00;4.00;;;;;10.54;100.00;100980.19;6369666;22;45330;-86
2022/04/09 10:53:37;;;;;;;;;6.00;4.25;;;;;10.68;100.00;100970.38;6396384;22;45716;-89
2022/04/09 10:56:27;;;;;;;;;6.33;6.33;;;;;10.84;100.00;100986.88;6367051;22;48338;-88
2022/04/09 10:59:05;;;;;;;;;7.00;4.33;;;;;10.97;100.00;101027.78;6395473;22;45368;-88
2022/04/09 11:01:51;;;;;;;;;8.75;7.00;;;;;11.16;100.00;101004.97;6396068;22;45495;-88
2022/04/09 11:07:17;;;;;;;;;3.00;3.00;;;;;11.51;100.00;101039.00;6394708;22;45775;-89
2022/04/09 11:09:48;;;;;;;;;9.00;6.33;;;;;11.65;100.00;101041.38;6367276;22;45369;-87
2022/04/09 11:12:19;;;;;;;;;7.33;6.00;;;;;11.88;100.00;101038.91;6366611;22;45410;-88
2022/04/09 11:14:49;;;;;;;;;6.67;5.67;;;;;12.09;100.00;101057.34;6395589;22;45220;-88
2022/04/09 11:17:19;;;;;;;;;3.00;3.00;;;;;12.20;100.00;101078.00;6400956;22;45370;-89
2022/04/09 11:19:46;;;;;;;;;4.33;4.33;;;;;12.25;100.00;101108.06;6371585;22;45468;-89
2022/04/09 11:22:12;;;;;;;;;5.67;5.67;;;;;12.35;100.00;101102.38;6368882;22;45354;-92
2022/04/09 11:24:38;;;;;;;;;6.33;6.33;;;;;12.63;100.00;101110.56;6399872;22;45179;-89